createdAt,value
2019-02-04T00:00:58.103Z,8.33
2019-02-04T00:03:02.187Z,8.30
2019-02-04T00:05:07.708Z,9.00
2019-02-04T00:07:11.947Z,8.77
2019-02-04T00:09:16.005Z,8.50
2019-02-04T00:11:19.966Z,7.27
2019-02-04T00:13:23.828Z,8.27
2019-02-04T00:15:27.736Z,7.83
2019-02-04T00:17:31.648Z,7.33
2019-02-04T00:19:35.900Z,7.57
2019-02-04T00:21:40.208Z,8.40
2019-02-04T00:23:44.139Z,8.20
2019-02-04T00:25:48.272Z,7.30
2019-02-04T00:27:52.069Z,7.73
2019-02-04T00:29:55.903Z,7.53
2019-02-04T00:31:59.716Z,7.37
2019-02-04T00:34:03.640Z,7.53
2019-02-04T00:36:07.927Z,7.73
2019-02-04T00:38:12.035Z,7.43
2019-02-04T00:40:17.371Z,7.80
2019-02-04T00:42:21.518Z,7.37
2019-02-04T00:44:25.276Z,7.27
2019-02-04T00:46:29.172Z,7.53
2019-02-04T00:48:33.170Z,7.20
2019-02-04T00:50:37.983Z,7.23
2019-02-04T00:52:42.802Z,7.50
2019-02-04T00:54:46.743Z,7.10
2019-02-04T00:56:50.660Z,6.80
2019-02-04T00:58:54.531Z,7.93
2019-02-04T01:00:58.751Z,7.50
2019-02-04T01:03:03.651Z,7.73
2019-02-04T01:05:09.104Z,7.70
2019-02-04T01:07:13.228Z,7.57
2019-02-04T01:09:17.202Z,7.60
2019-02-04T01:11:21.135Z,6.93
2019-02-04T01:13:24.994Z,7.43
2019-02-04T01:15:29.157Z,7.10
2019-02-04T01:17:33.359Z,7.23
2019-02-04T01:19:37.783Z,6.67
2019-02-04T01:21:42.006Z,7.93
2019-02-04T01:23:45.993Z,6.57
2019-02-04T01:25:49.845Z,7.00
2019-02-04T01:27:53.789Z,7.50
2019-02-04T01:29:57.883Z,7.33
2019-02-04T01:32:21.043Z,6.60
2019-02-04T01:34:24.846Z,7.20
2019-02-04T01:36:28.735Z,6.80
2019-02-04T01:38:32.613Z,6.97
2019-02-04T01:40:36.919Z,7.20
2019-02-04T01:42:41.054Z,6.87
2019-02-04T01:44:44.931Z,6.97
2019-02-04T01:46:51.462Z,6.17
2019-02-04T01:48:54.402Z,6.77
2019-02-04T01:50:58.257Z,6.37
2019-02-04T01:53:02.046Z,6.67
2019-02-04T01:55:07.756Z,6.67
2019-02-04T01:57:11.753Z,7.43
2019-02-04T01:59:15.588Z,7.23
2019-02-04T02:01:19.751Z,6.50
2019-02-04T02:03:24.827Z,6.93
2019-02-04T02:05:29.043Z,7.37
2019-02-04T02:07:33.283Z,7.50
2019-02-04T02:09:37.211Z,7.23
2019-02-04T02:11:41.563Z,7.07
2019-02-04T02:13:45.462Z,6.63
2019-02-04T02:15:49.491Z,7.50
2019-02-04T02:17:53.615Z,7.30
2019-02-04T02:19:57.651Z,6.43
2019-02-04T02:22:01.603Z,7.20
2019-02-04T02:24:05.591Z,7.83
2019-02-04T02:26:09.515Z,7.50
2019-02-04T02:28:15.482Z,6.77
2019-02-04T02:30:21.679Z,7.70
2019-02-04T02:32:26.251Z,7.43
2019-02-04T02:34:30.911Z,7.57
2019-02-04T02:36:34.787Z,7.73
2019-02-04T02:38:38.601Z,7.30
2019-02-04T02:40:42.354Z,8.20
2019-02-04T02:42:46.267Z,7.50
2019-02-04T02:44:50.486Z,7.90
2019-02-04T02:46:55.060Z,8.07
2019-02-04T02:48:59.063Z,7.10
2019-02-04T02:51:03.005Z,8.70
2019-02-04T02:53:06.827Z,8.00
2019-02-04T02:55:12.305Z,8.10
2019-02-04T02:57:16.116Z,8.17
2019-02-04T02:59:23.176Z,8.97
2019-02-04T03:01:27.294Z,7.63
2019-02-04T03:03:31.377Z,8.20
2019-02-04T03:05:36.779Z,8.63
2019-02-04T03:07:40.643Z,8.67
2019-02-04T03:09:44.455Z,8.70
2019-02-04T03:11:48.366Z,9.43
2019-02-04T03:13:52.423Z,8.70
2019-02-04T03:15:56.920Z,9.10
2019-02-04T03:18:00.862Z,9.43
2019-02-04T03:20:06.347Z,10.10
2019-02-04T03:22:10.712Z,9.00
2019-02-04T03:24:14.546Z,9.87
2019-02-04T03:26:18.379Z,9.63
2019-02-04T03:28:22.560Z,9.70
2019-02-04T03:30:29.185Z,9.90
2019-02-04T03:32:33.178Z,10.47
2019-02-04T03:34:37.331Z,10.60
2019-02-04T03:36:41.481Z,10.07
2019-02-04T03:38:45.716Z,9.93
2019-02-04T03:40:49.614Z,10.80
2019-02-04T03:43:12.635Z,10.90
2019-02-04T03:45:16.507Z,10.10
2019-02-04T03:47:20.415Z,10.67
2019-02-04T03:49:25.059Z,10.53
2019-02-04T03:51:29.288Z,10.67
2019-02-04T03:53:33.423Z,10.33
2019-02-04T03:55:37.381Z,10.13
2019-02-04T03:57:41.350Z,9.70
2019-02-04T04:00:05.867Z,10.73
2019-02-04T04:02:09.869Z,10.73
2019-02-04T04:04:13.640Z,11.27
2019-02-04T04:06:18.125Z,10.37
2019-02-04T04:08:22.007Z,10.33
2019-02-04T04:10:26.789Z,10.73
2019-02-04T04:12:30.860Z,10.13
2019-02-04T04:14:34.731Z,10.27
2019-02-04T04:16:38.667Z,12.20
2019-02-04T04:18:42.859Z,10.63
2019-02-04T04:20:46.778Z,9.90
2019-02-04T04:22:50.664Z,10.77
2019-02-04T04:24:55.397Z,9.10
2019-02-04T04:27:18.595Z,10.30
2019-02-04T04:29:22.482Z,10.33
2019-02-04T04:31:27.235Z,10.27
2019-02-04T04:33:31.266Z,9.63
2019-02-04T04:35:35.250Z,10.30
2019-02-04T04:37:39.188Z,10.10
2019-02-04T04:39:43.000Z,10.47
2019-02-04T04:41:46.804Z,10.77
2019-02-04T04:43:50.893Z,10.70
2019-02-04T04:45:55.503Z,10.90
2019-02-04T04:47:59.421Z,10.80
2019-02-04T04:50:04.457Z,10.13
2019-02-04T04:52:08.428Z,9.07
2019-02-04T04:54:12.187Z,9.80
2019-02-04T04:56:15.999Z,8.50
2019-02-04T04:58:19.806Z,9.43
2019-02-04T05:00:26.977Z,10.47
2019-02-04T05:02:31.316Z,10.63
2019-02-04T05:04:35.511Z,10.70
2019-02-04T05:06:39.323Z,10.57
2019-02-04T05:08:43.878Z,11.60
2019-02-04T05:10:47.733Z,9.90
2019-02-04T05:12:51.684Z,10.97
2019-02-04T05:14:56.671Z,11.20
2019-02-04T05:17:00.969Z,9.63
2019-02-04T05:19:04.945Z,10.60
2019-02-04T05:21:28.135Z,11.23
2019-02-04T05:23:32.215Z,10.03
2019-02-04T05:25:36.055Z,10.00
2019-02-04T05:27:39.988Z,10.57
2019-02-04T05:29:44.329Z,9.13
2019-02-04T05:31:48.131Z,10.13
2019-02-04T05:33:51.898Z,9.03
2019-02-04T05:35:56.476Z,9.50
2019-02-04T05:38:00.693Z,10.30
2019-02-04T05:40:06.483Z,9.00
2019-02-04T05:42:10.289Z,9.27
2019-02-04T05:44:14.168Z,10.03
2019-02-04T05:46:18.047Z,9.70
2019-02-04T05:48:21.839Z,9.33
2019-02-04T05:50:26.575Z,9.70
2019-02-04T05:52:30.882Z,11.50
2019-02-04T05:54:34.750Z,9.77
2019-02-04T05:56:38.549Z,10.67
2019-02-04T05:58:42.584Z,10.37
2019-02-04T06:00:48.851Z,9.87
2019-02-04T06:02:53.891Z,10.30
2019-02-04T06:04:58.595Z,10.13
2019-02-04T06:07:02.544Z,9.80
2019-02-04T06:09:08.652Z,11.23
2019-02-04T06:11:12.554Z,10.93
2019-02-04T06:13:16.599Z,11.37
2019-02-04T06:15:20.600Z,10.27
2019-02-04T06:17:25.142Z,9.70
2019-02-04T06:19:29.341Z,9.40
2019-02-04T06:21:33.443Z,9.83
2019-02-04T06:23:37.943Z,9.40
2019-02-04T06:25:41.760Z,9.30
2019-02-04T06:27:45.671Z,9.03
2019-02-04T06:29:49.662Z,10.30
2019-02-04T06:31:53.438Z,10.07
2019-02-04T06:33:58.078Z,9.40
2019-02-04T06:36:02.176Z,9.90
2019-02-04T06:38:06.198Z,9.77
2019-02-04T06:40:11.585Z,9.40
2019-02-04T06:42:15.506Z,9.90
2019-02-04T06:44:19.371Z,10.70
2019-02-04T06:46:23.280Z,9.10
2019-02-04T06:48:27.855Z,9.00
2019-02-04T06:50:32.036Z,10.17
2019-02-04T06:52:35.875Z,9.13
2019-02-04T06:54:39.795Z,9.23
2019-02-04T06:56:43.561Z,9.43
2019-02-04T06:58:47.710Z,10.60
2019-02-04T07:00:52.301Z,10.50
2019-02-04T07:02:58.255Z,26.93
2019-02-04T07:05:03.253Z,19.10
2019-02-04T07:07:08.649Z,16.87
2019-02-04T07:09:13.684Z,10.30
2019-02-04T07:11:18.235Z,8.77
2019-02-04T07:13:22.195Z,10.63
2019-02-04T07:15:27.030Z,10.10
2019-02-04T07:17:31.585Z,10.73
2019-02-04T07:19:35.447Z,9.50
2019-02-04T07:21:59.115Z,9.97
2019-02-04T07:24:03.324Z,9.13
2019-02-04T07:26:07.567Z,9.90
2019-02-04T07:28:11.345Z,10.03
2019-02-04T07:30:17.791Z,9.30
2019-02-04T07:32:21.604Z,9.33
2019-02-04T07:34:25.792Z,8.70
2019-02-04T07:36:30.079Z,8.90
2019-02-04T07:38:35.229Z,9.70
2019-02-04T07:40:39.055Z,10.40
2019-02-04T07:42:43.027Z,9.53
2019-02-04T07:44:47.083Z,10.07
2019-02-04T07:46:50.947Z,9.93
2019-02-04T07:48:54.743Z,10.07
2019-02-04T07:50:59.712Z,9.40
2019-02-04T07:53:03.784Z,8.90
2019-02-04T07:55:08.423Z,9.50
2019-02-04T07:57:12.411Z,9.53
2019-02-04T07:59:16.323Z,10.30
2019-02-04T08:01:20.162Z,10.80
2019-02-04T08:03:24.533Z,8.47
2019-02-04T08:05:29.686Z,9.17
2019-02-04T08:07:33.780Z,9.13
2019-02-04T08:09:37.835Z,8.50
2019-02-04T08:11:41.639Z,8.57
2019-02-04T08:13:47.382Z,9.47
2019-02-04T08:15:51.248Z,9.30
2019-02-04T08:17:56.092Z,9.33
2019-02-04T08:20:01.068Z,9.00
2019-02-04T08:22:05.424Z,9.27
2019-02-04T08:24:09.908Z,8.97
2019-02-04T08:26:13.671Z,9.20
2019-02-04T08:28:17.561Z,9.47
2019-02-04T08:30:30.647Z,9.10
2019-02-04T08:32:34.891Z,8.87
2019-02-04T08:34:39.091Z,9.17
2019-02-04T08:36:46.398Z,9.40
2019-02-04T08:38:50.539Z,9.40
2019-02-04T08:40:54.509Z,8.97
2019-02-04T08:43:00.368Z,7.97
2019-02-04T08:45:06.799Z,8.85
2019-02-04T08:47:30.819Z,9.10
2019-02-04T08:49:35.304Z,8.60
2019-02-04T08:51:39.729Z,9.13
2019-02-04T08:53:44.083Z,9.67
2019-02-04T08:55:50.467Z,8.40
2019-02-04T08:57:54.444Z,9.00
2019-02-04T09:00:00.923Z,9.20
2019-02-04T09:02:06.178Z,9.23
2019-02-04T09:04:10.393Z,8.07
2019-02-04T09:06:14.571Z,9.83
2019-02-04T09:08:18.721Z,8.93
2019-02-04T09:10:32.004Z,8.47
2019-02-04T09:12:36.374Z,9.83
2019-02-04T09:14:40.849Z,9.83
2019-02-04T09:16:44.758Z,9.30
2019-02-04T09:18:48.701Z,9.47
2019-02-04T09:20:52.610Z,9.07
2019-02-04T09:22:57.877Z,9.47
2019-02-04T09:25:02.144Z,9.83
2019-02-04T09:27:06.382Z,9.80
2019-02-04T09:29:10.333Z,9.63
2019-02-04T09:31:14.223Z,10.00
2019-02-04T09:33:18.015Z,8.17
2019-02-04T09:35:21.933Z,9.37
2019-02-04T09:37:25.845Z,8.10
2019-02-04T09:39:30.535Z,8.20
2019-02-04T09:41:35.482Z,8.30
2019-02-04T09:43:40.468Z,8.33
2019-02-04T09:45:45.666Z,7.93
2019-02-04T09:47:50.656Z,7.93
2019-02-04T09:49:55.653Z,7.90
2019-02-04T09:52:00.801Z,7.67
2019-02-04T09:54:05.093Z,7.27
2019-02-04T09:56:09.517Z,7.70
2019-02-04T09:58:16.533Z,7.27
2019-02-04T10:00:22.888Z,7.07
2019-02-04T10:02:27.836Z,7.03
2019-02-04T10:04:32.359Z,7.57
2019-02-04T10:06:36.678Z,6.50
2019-02-04T10:08:40.640Z,6.90
2019-02-04T10:10:44.503Z,6.93
2019-02-04T10:12:48.339Z,8.07
2019-02-04T10:14:52.219Z,6.73
2019-02-04T10:17:10.344Z,6.90
2019-02-04T10:19:18.219Z,6.53
2019-02-04T10:21:22.684Z,6.67
2019-02-04T10:23:26.873Z,7.03
2019-02-04T10:25:33.864Z,6.50
2019-02-04T10:27:38.786Z,6.27
2019-02-04T10:29:44.660Z,6.27
2019-02-04T10:31:48.559Z,5.93
2019-02-04T10:33:52.769Z,5.90
2019-02-04T10:35:56.771Z,5.80
2019-02-04T10:38:01.655Z,6.50
2019-02-04T10:40:06.131Z,5.73
2019-02-04T10:42:10.072Z,5.23
2019-02-04T10:44:14.183Z,6.07
2019-02-04T10:46:18.159Z,5.30
2019-02-04T10:48:22.249Z,4.53
2019-02-04T10:50:45.185Z,4.27
2019-02-04T10:52:40.102Z,4.57
2019-02-04T10:54:43.977Z,5.03
2019-02-04T10:56:47.822Z,5.27
2019-02-04T10:58:51.881Z,3.70
2019-02-04T11:00:56.043Z,4.80
2019-02-04T11:03:02.078Z,4.27
2019-02-04T11:05:08.223Z,4.10
2019-02-04T11:07:19.239Z,4.53
2019-02-04T11:09:23.385Z,4.00
2019-02-04T11:11:27.646Z,3.93
2019-02-04T11:13:32.292Z,4.00
2019-02-04T11:15:36.511Z,4.07
2019-02-04T11:17:41.228Z,3.97
2019-02-04T11:19:45.158Z,3.40
2019-02-04T11:21:49.116Z,4.10
2019-02-04T11:23:53.133Z,3.60
2019-02-04T11:25:57.083Z,3.90
2019-02-04T11:28:01.628Z,3.40
2019-02-04T11:30:10.097Z,3.23
2019-02-04T11:32:14.127Z,3.40
2019-02-04T11:34:18.003Z,3.10
2019-02-04T11:36:21.952Z,3.30
2019-02-04T11:38:25.931Z,3.20
2019-02-04T11:40:35.466Z,3.50
2019-02-04T11:42:39.559Z,3.23
2019-02-04T11:44:43.513Z,3.23
2019-02-04T11:46:47.428Z,3.87
2019-02-04T11:48:51.507Z,3.50
2019-02-04T11:50:55.620Z,3.50
2019-02-04T11:53:00.274Z,3.37
2019-02-04T11:55:05.851Z,3.60
2019-02-04T11:57:09.859Z,3.50
2019-02-04T11:59:13.728Z,3.87
2019-02-04T12:01:17.654Z,3.60
2019-02-04T12:03:21.686Z,3.90
2019-02-04T12:05:26.037Z,4.00
2019-02-04T12:07:30.506Z,3.50
2019-02-04T12:09:34.671Z,3.77
2019-02-04T12:11:38.829Z,3.93
2019-02-04T12:13:43.295Z,3.07
2019-02-04T12:15:47.294Z,3.07
2019-02-04T12:17:51.443Z,3.90
2019-02-04T12:19:55.916Z,3.90
2019-02-04T12:22:02.793Z,4.00
2019-02-04T12:24:07.450Z,3.20
2019-02-04T12:26:11.536Z,4.10
2019-02-04T12:28:15.476Z,3.30
2019-02-04T12:30:22.280Z,2.93
2019-02-04T12:32:26.166Z,2.90
2019-02-04T12:34:30.851Z,3.00
2019-02-04T12:36:34.920Z,3.23
2019-02-04T12:38:38.925Z,3.20
2019-02-04T12:40:42.784Z,3.10
2019-02-04T12:42:46.822Z,2.87
2019-02-04T12:44:50.664Z,3.00
2019-02-04T12:46:54.783Z,3.00
2019-02-04T12:48:59.200Z,3.70
2019-02-04T12:51:03.455Z,2.70
2019-02-04T12:53:10.354Z,2.87
2019-02-04T12:55:16.036Z,3.07
2019-02-04T12:57:20.211Z,3.03
2019-02-04T12:59:24.083Z,3.70
2019-02-04T13:01:27.880Z,3.20
2019-02-04T13:03:32.604Z,2.73
2019-02-04T13:05:45.080Z,2.93
2019-02-04T13:07:49.012Z,2.60
2019-02-04T13:09:52.971Z,2.93
2019-02-04T13:11:56.907Z,2.40
2019-02-04T13:14:01.674Z,3.10
2019-02-04T13:16:06.287Z,2.60
2019-02-04T13:18:10.604Z,2.60
2019-02-04T13:20:17.663Z,2.93
2019-02-04T13:22:21.956Z,2.77
2019-02-04T13:24:25.797Z,2.50
2019-02-04T13:26:30.331Z,2.83
2019-02-04T13:28:34.959Z,2.80
2019-02-04T13:30:39.499Z,2.63
2019-02-04T13:32:43.355Z,2.63
2019-02-04T13:34:47.255Z,2.53
2019-02-04T13:36:51.189Z,3.00
2019-02-04T13:38:54.971Z,2.70
2019-02-04T13:41:07.518Z,2.80
2019-02-04T13:43:05.515Z,2.93
2019-02-04T13:45:12.187Z,2.30
2019-02-04T13:47:16.084Z,2.83
2019-02-04T13:49:20.136Z,2.40
2019-02-04T13:51:24.451Z,2.80
2019-02-04T13:53:28.968Z,2.90
2019-02-04T13:55:34.116Z,2.80
2019-02-04T13:57:38.063Z,2.73
2019-02-04T13:59:43.417Z,2.80
2019-02-04T14:01:47.363Z,2.80
2019-02-04T14:03:51.508Z,3.00
2019-02-04T14:05:55.396Z,2.73
2019-02-04T14:07:59.733Z,2.67
2019-02-04T14:10:05.862Z,3.17
2019-02-04T14:12:10.099Z,3.10
2019-02-04T14:14:13.911Z,2.80
2019-02-04T14:16:17.986Z,2.90
2019-02-04T14:18:25.870Z,2.50
2019-02-04T14:20:27.777Z,2.90
2019-02-04T14:22:32.311Z,3.23
2019-02-04T14:24:36.843Z,3.10
2019-02-04T14:26:41.228Z,2.90
2019-02-04T14:28:45.203Z,2.97
2019-02-04T14:30:49.182Z,2.97
2019-02-04T14:32:53.236Z,3.43
2019-02-04T14:34:57.246Z,3.40
2019-02-04T14:37:02.440Z,3.83
2019-02-04T14:39:12.045Z,3.30
2019-02-04T14:41:16.213Z,3.07
2019-02-04T14:43:36.987Z,3.40
2019-02-04T14:46:12.807Z,3.37
2019-02-04T14:49:07.329Z,3.40
2019-02-04T14:52:02.651Z,3.20
2019-02-04T14:54:37.981Z,3.80
2019-02-04T14:57:08.121Z,3.53
2019-02-04T14:59:55.186Z,3.50
2019-02-04T15:02:46.355Z,3.90
2019-02-04T15:05:19.512Z,3.00
2019-02-04T15:08:00.981Z,3.10
2019-02-04T15:10:38.638Z,3.30
2019-02-04T15:13:15.606Z,3.63
2019-02-04T15:15:37.405Z,3.63
2019-02-04T15:18:37.156Z,3.57
2019-02-04T15:21:17.300Z,3.40
2019-02-04T15:23:41.473Z,3.80
2019-02-04T15:26:33.810Z,3.67
2019-02-04T15:29:09.117Z,3.23
2019-02-04T15:31:44.301Z,4.00
2019-02-04T15:34:09.769Z,5.00
2019-02-04T15:36:56.835Z,3.90
2019-02-04T15:39:25.564Z,4.40
2019-02-04T15:41:42.459Z,4.67
2019-02-04T15:44:12.406Z,3.77
2019-02-04T15:46:32.665Z,4.10
2019-02-04T15:49:26.744Z,4.07
2019-02-04T15:51:41.856Z,3.60
2019-02-04T15:53:45.691Z,4.03
2019-02-04T15:55:49.664Z,3.83
2019-02-04T15:57:53.491Z,3.93
2019-02-04T15:59:57.591Z,4.33
2019-02-04T16:02:03.867Z,3.90
2019-02-04T16:04:28.275Z,4.07
2019-02-04T16:06:32.531Z,4.20
2019-02-04T16:08:36.999Z,4.00
2019-02-04T16:10:41.336Z,4.20
2019-02-04T16:12:47.742Z,3.57
2019-02-04T16:14:50.883Z,4.30
2019-02-04T16:16:54.964Z,3.73
2019-02-04T16:18:58.754Z,3.90
2019-02-04T16:21:03.507Z,4.40
2019-02-04T16:23:08.287Z,4.17
2019-02-04T16:25:12.647Z,3.97
2019-02-04T16:27:17.009Z,4.10
2019-02-04T16:29:20.807Z,4.37
2019-02-04T16:31:25.092Z,4.20
2019-02-04T16:33:29.010Z,4.00
2019-02-04T16:35:52.440Z,3.83
2019-02-04T16:37:56.299Z,3.57
2019-02-04T16:40:00.233Z,4.20
2019-02-04T16:42:04.870Z,4.47
2019-02-04T16:44:09.660Z,3.80
2019-02-04T16:46:13.748Z,3.57
2019-02-04T16:48:17.518Z,3.57
2019-02-04T16:50:23.848Z,3.63
2019-02-04T16:52:27.718Z,3.40
2019-02-04T16:54:31.925Z,3.83
2019-02-04T16:56:36.545Z,3.50
2019-02-04T16:58:40.504Z,4.50
2019-02-04T17:00:44.679Z,4.27
2019-02-04T17:02:48.539Z,3.63
2019-02-04T17:04:52.481Z,4.00
2019-02-04T17:06:56.696Z,4.10
2019-02-04T17:09:02.272Z,3.40
2019-02-04T17:11:06.646Z,3.60
2019-02-04T17:13:10.591Z,3.93
2019-02-04T17:15:15.005Z,4.37
2019-02-04T17:17:19.150Z,4.03
2019-02-04T17:19:22.940Z,4.03
2019-02-04T17:21:26.733Z,3.67
2019-02-04T17:23:30.738Z,4.10
2019-02-04T17:25:35.186Z,3.93
2019-02-04T17:27:39.411Z,4.30
2019-02-04T17:29:43.873Z,4.37
2019-02-04T17:31:47.689Z,4.73
2019-02-04T17:33:51.555Z,4.17
2019-02-04T17:35:55.437Z,4.87
2019-02-04T17:37:59.721Z,4.47
2019-02-04T17:40:04.762Z,4.07
2019-02-04T17:42:08.787Z,4.43
2019-02-04T17:44:12.660Z,4.63
2019-02-04T17:46:16.561Z,4.47
2019-02-04T17:48:20.512Z,4.00
2019-02-04T17:50:24.499Z,3.83
2019-02-04T17:52:28.316Z,4.27
2019-02-04T17:54:33.190Z,4.43
2019-02-04T17:56:37.255Z,4.40
2019-02-04T17:58:41.272Z,4.40
2019-02-04T18:00:48.462Z,3.90
2019-02-04T18:02:52.385Z,4.10
2019-02-04T18:04:56.253Z,4.33
2019-02-04T18:07:00.234Z,4.50
2019-02-04T18:09:07.882Z,4.03
2019-02-04T18:11:12.197Z,4.17
2019-02-04T18:13:16.088Z,4.00
2019-02-04T18:15:20.334Z,4.87
2019-02-04T18:17:24.162Z,4.63
2019-02-04T18:19:28.000Z,4.13
2019-02-04T18:21:32.342Z,4.47
2019-02-04T18:23:45.590Z,4.30
2019-02-04T18:25:42.410Z,4.07
2019-02-04T18:27:46.316Z,4.20
2019-02-04T18:29:50.466Z,4.30
2019-02-04T18:31:54.917Z,4.20
2019-02-04T18:33:58.707Z,4.20
2019-02-04T18:36:02.925Z,4.17
2019-02-04T18:38:06.902Z,4.23
2019-02-04T18:40:13.431Z,4.70
2019-02-04T18:42:17.462Z,4.50
2019-02-04T18:44:21.760Z,4.40
2019-02-04T18:46:26.114Z,4.20
2019-02-04T18:48:29.919Z,4.50
2019-02-04T18:50:34.228Z,4.37
2019-02-04T18:52:38.416Z,5.67
2019-02-04T18:54:42.270Z,5.33
2019-02-04T18:56:46.311Z,4.80
2019-02-04T18:58:50.191Z,4.97
2019-02-04T19:00:54.003Z,4.90
2019-02-04T19:02:58.781Z,4.73
2019-02-04T19:05:02.838Z,4.90
2019-02-04T19:07:07.060Z,4.77
2019-02-04T19:09:11.390Z,4.77
2019-02-04T19:11:15.335Z,4.90
2019-02-04T19:13:19.091Z,5.10
2019-02-04T19:15:23.714Z,5.47
2019-02-04T19:17:27.590Z,5.60
2019-02-04T19:19:31.379Z,5.47
2019-02-04T19:21:38.217Z,5.77
2019-02-04T19:23:41.521Z,5.83
2019-02-04T19:25:45.474Z,4.70
2019-02-04T19:27:49.824Z,4.33
2019-02-04T19:29:53.646Z,5.17
2019-02-04T19:31:57.599Z,5.03
2019-02-04T19:34:01.831Z,4.63
2019-02-04T19:36:07.458Z,5.13
2019-02-04T19:38:11.576Z,5.50
2019-02-04T19:40:16.000Z,5.40
2019-02-04T19:42:19.792Z,4.87
2019-02-04T19:44:23.671Z,5.17
2019-02-04T19:46:27.443Z,4.03
2019-02-04T19:48:31.303Z,4.50
2019-02-04T19:50:35.792Z,4.00
2019-02-04T19:52:39.868Z,4.17
2019-02-04T19:54:43.793Z,4.10
2019-02-04T19:56:47.654Z,4.50
2019-02-04T19:58:51.463Z,4.60
2019-02-04T20:00:55.285Z,4.57
2019-02-04T20:02:59.276Z,4.70
2019-02-04T20:05:03.390Z,4.83
2019-02-04T20:07:07.603Z,4.20
2019-02-04T20:09:11.829Z,4.17
2019-02-04T20:11:15.859Z,4.47
2019-02-04T20:13:19.654Z,4.80
2019-02-04T20:15:25.682Z,4.43
2019-02-04T20:17:29.521Z,4.63
2019-02-04T20:19:33.579Z,4.93
2019-02-04T20:21:37.763Z,4.83
2019-02-04T20:23:41.701Z,5.40
2019-02-04T20:25:45.743Z,4.57
2019-02-04T20:27:49.555Z,5.43
2019-02-04T20:29:53.471Z,5.30
2019-02-04T20:31:57.437Z,5.37
2019-02-04T20:34:01.266Z,4.80
2019-02-04T20:36:06.424Z,4.23
2019-02-04T20:38:10.455Z,5.13
2019-02-04T20:40:16.583Z,4.63
2019-02-04T20:42:20.540Z,4.13
2019-02-04T20:44:24.340Z,4.50
2019-02-04T20:46:28.247Z,4.70
2019-02-04T20:48:32.379Z,4.13
2019-02-04T20:50:38.332Z,4.70
2019-02-04T20:52:42.245Z,5.20
2019-02-04T20:54:46.351Z,4.67
2019-02-04T20:56:50.210Z,4.60
2019-02-04T20:58:53.960Z,4.70
2019-02-04T21:00:57.987Z,4.37
2019-02-04T21:03:02.243Z,4.67
2019-02-04T21:05:06.991Z,4.80
2019-02-04T21:07:10.943Z,5.30
2019-02-04T21:09:14.875Z,4.80
2019-02-04T21:11:19.207Z,4.70
2019-02-04T21:13:23.036Z,5.20
2019-02-04T21:15:26.946Z,4.63
2019-02-04T21:17:30.833Z,4.70
2019-02-04T21:19:35.223Z,5.30
2019-02-04T21:21:39.463Z,4.37
2019-02-04T21:23:43.302Z,5.00
2019-02-04T21:25:47.194Z,4.97
2019-02-04T21:27:51.139Z,4.90
2019-02-04T21:29:55.548Z,4.40
2019-02-04T21:31:59.832Z,4.67
2019-02-04T21:34:03.868Z,5.90
2019-02-04T21:36:08.208Z,4.70
2019-02-04T21:38:12.606Z,5.37
2019-02-04T21:40:16.911Z,5.10
2019-02-04T21:42:21.232Z,5.50
2019-02-04T21:44:25.031Z,5.27
2019-02-04T21:46:28.860Z,4.47
2019-02-04T21:48:32.784Z,4.57
2019-02-04T21:50:37.231Z,5.00
2019-02-04T21:52:41.586Z,4.57
2019-02-04T21:54:45.620Z,4.10
2019-02-04T21:56:49.386Z,4.30
2019-02-04T21:58:53.502Z,5.13
2019-02-04T22:00:57.362Z,4.63
2019-02-04T22:03:02.016Z,4.70
2019-02-04T22:05:08.702Z,4.67
2019-02-04T22:07:12.663Z,4.50
2019-02-04T22:09:16.658Z,4.50
2019-02-04T22:11:20.444Z,4.80
2019-02-04T22:13:24.404Z,4.90
2019-02-04T22:15:28.980Z,4.70
2019-02-04T22:17:32.887Z,4.83
2019-02-04T22:19:37.103Z,4.60
2019-02-04T22:21:41.205Z,4.43
2019-02-04T22:23:45.484Z,5.07
2019-02-04T22:25:49.321Z,4.40
2019-02-04T22:27:53.680Z,4.50
2019-02-04T22:29:57.481Z,4.50
2019-02-04T22:32:01.732Z,4.60
2019-02-04T22:34:06.246Z,4.57
2019-02-04T22:36:10.218Z,4.77
2019-02-04T22:38:14.178Z,4.70
2019-02-04T22:40:20.864Z,4.63
2019-02-04T22:42:24.943Z,4.57
2019-02-04T22:44:29.116Z,5.00
2019-02-04T22:46:32.943Z,4.83
2019-02-04T22:48:37.315Z,4.70
2019-02-04T22:50:41.514Z,4.90
2019-02-04T22:52:45.663Z,5.23
2019-02-04T22:54:49.836Z,4.93
2019-02-04T22:56:53.628Z,4.70
2019-02-04T22:58:57.441Z,5.63
2019-02-04T23:01:24.632Z,4.50
2019-02-04T23:03:29.149Z,5.43
2019-02-04T23:05:33.035Z,4.53
2019-02-04T23:07:37.228Z,5.80
2019-02-04T23:09:41.292Z,4.63
2019-02-04T23:11:45.361Z,4.80
2019-02-04T23:13:49.124Z,4.87
2019-02-04T23:15:54.122Z,4.93
2019-02-04T23:17:58.209Z,4.87
2019-02-04T23:20:02.484Z,4.60
2019-02-04T23:22:06.647Z,4.93
2019-02-04T23:24:10.686Z,5.97
2019-02-04T23:26:14.719Z,4.93
2019-02-04T23:28:18.675Z,4.80
2019-02-04T23:30:23.032Z,5.67
2019-02-04T23:32:26.824Z,5.07
2019-02-04T23:34:30.651Z,5.03
2019-02-04T23:36:34.676Z,5.10
2019-02-04T23:38:39.076Z,5.20
2019-02-04T23:40:43.364Z,5.33
2019-02-04T23:42:48.151Z,5.33
2019-02-04T23:44:52.043Z,5.00
2019-02-04T23:46:55.923Z,5.63
2019-02-04T23:48:59.735Z,5.37
2019-02-04T23:51:04.896Z,5.70
2019-02-04T23:53:09.094Z,5.50
2019-02-04T23:55:13.872Z,5.77
2019-02-04T23:57:17.710Z,5.67
2019-02-04T23:59:21.552Z,5.60
